Chickasaw, Ohio
Current Conditions -  °F | °C
As of 5:13 AM on Saturday 22 Nov 2014 (Local Time) from KAXV Reporting Station
Overcast Overcast  
Wind Chill: 22°   Ceiling: 3300
Heat Index: 32°   Visibility: 10mi
Dew Point: 23°   Wind: 15mph
Humidity: 69%   Direction: 190°S
Pressure: 30.24"   Gusts: NA
Location:  40.44°N, 84.49°W
Report Text: KAXV 221013Z AUTO 19013KT 10SM SCT016 BKN033 OVC039 00/M05 A3024 RMK AO2
Loading
Personal Weather Stations






























Interactive Weather Map New forecast layout! Learn more

10-Day Weather Forecast

Advertisements
Track Severe Weather on mobile